Flight Track Log - Related Links

Times and Time Zones

All times are in EDT time to prevent confusion due to time zone crossing. See the SWA3791 flight status page for this flight to view local times or setup timezone preferences in your user account.

Time Position Orientation Groundspeed Altitude Reporting Facility
EDT Latitude Longitude Course Direction KTS MPH feet Rate Location/Type
Fri 09:03:00 PM 39.5867 -75.3545 42° Northeast  Level FlightAware Approximate
Fri 09:04:00 PM 39.6414 -75.2883 48° Northeast  Level FlightAware Approximate
Fri 09:05:00 PM 39.6911 -75.2156 48° Northeast  Level FlightAware Approximate
Fri 09:06:00 PM 39.7407 -75.1428 48° Northeast  Level FlightAware Approximate
Fri 09:07:00 PM 39.7903 -75.0699 48° Northeast  Level FlightAware Approximate
Fri 09:08:00 PM 39.8399 -74.9968 49° Northeast  Level FlightAware Approximate
Fri 09:09:00 PM 39.8894 -74.9237 49° Northeast  Level FlightAware Approximate
Fri 09:10:00 PM 39.9406 -74.8527 45° Northeast  Level FlightAware Approximate
Fri 09:11:00 PM 39.9939 -74.7841 45° Northeast  Level FlightAware Approximate
Fri 09:12:00 PM 40.0379 -74.7103 47° Northeast  Level FlightAware Approximate
Fri 09:13:00 PM 40.0890 -74.6389 47° Northeast  Level FlightAware Approximate
Fri 09:14:00 PM 40.1401 -74.5674 47° Northeast  Level FlightAware Approximate
Fri 09:15:00 PM 40.1912 -74.4958 47° Northeast  Level FlightAware Approximate
Fri 09:16:00 PM 40.2248 -74.4091 66° East  Level FlightAware Approximate
Fri 09:17:00 PM 40.2546 -74.3192 66° East  Level FlightAware Approximate
Fri 09:18:00 PM 40.2845 -74.2292 66° East  Level FlightAware Approximate
Fri 09:19:00 PM 40.3142 -74.1392 67° East  Level FlightAware Approximate
Fri 09:20:00 PM 40.3439 -74.0491 67° East  Level FlightAware Approximate
Fri 09:20:02 PM 39.1833 -76.7167 67° East 173 199 1,800  Level Potomac TRACON
Fri 09:21:00 PM 40.3735 -73.9589 67° East  Level FlightAware Approximate
Fri 09:21:59 PM 39.1208 -76.7125 177° South 122 140 6,100  Level Washington Center
Fri 09:22:00 PM 40.4030 -73.8686 67° East  Level FlightAware Approximate
Fri 09:23:00 PM 40.4325 -73.7782 67° East  Level FlightAware Approximate
Fri 09:23:00 PM 39.1319 -76.6111 82° East 154 177 10,100  Level Washington Center
Fri 09:23:58 PM 39.1372 -76.4853 87° East 266 306 12,400 2,824 Climbing Washington Center
Fri 09:24:00 PM 40.4619 -73.6878 67° East  Level FlightAware Approximate
Fri 09:24:59 PM 39.1444 -76.3489 86° East 302 348 15,700  Level Washington Center
Fri 09:25:00 PM 40.4912 -73.5973 67° East  Level FlightAware Approximate
Fri 09:26:00 PM 39.1514 -76.2072 86° East 368 423 18,800  Level Washington Center
Fri 09:26:58 PM 39.1981 -76.0575 68° East 392 451 21,500 2,150 Climbing Washington Center
Fri 09:28:00 PM 39.2714 -75.9319 53° Northeast 399 459 23,100 2,050 Climbing Washington Center
Fri 09:28:58 PM 39.3508 -75.8117 49° Northeast 424 488 25,600 2,218 Climbing Washington Center
Fri 09:29:59 PM 39.4322 -75.6883 49° Northeast 438 504 27,500 2,050 Climbing Washington Center
Fri 09:30:58 PM 39.5178 -75.5619 49° Northeast 454 522 29,700 2,200 Climbing Washington Center
Fri 09:31:59 PM 39.5989 -75.4381 50° Northeast 454 522 31,900 1,623 Climbing Washington Center
Fri 09:33:00 PM 39.6819 -75.3083 50° Northeast 454 522 33,000 680 Climbing Washington Center
Fri 09:33:36 PM 39.7331 -75.2331 49° Northeast 455 524 33,000  Level New York Center
Fri 09:34:35 PM 39.8175 -75.0925 52° Northeast 468 539 33,000  Level New York Center
Fri 09:35:36 PM 39.9014 -74.9678 49° Northeast 473 544 33,000  Level New York Center
Fri 09:36:35 PM 39.9875 -74.8294 51° Northeast 479 551 33,000  Level New York Center
Fri 09:37:35 PM 40.0511 -74.6703 62° Northeast 479 551 33,000  Level New York Center
Fri 09:38:34 PM 40.1086 -74.5081 65° Northeast 479 551 33,000  Level New York Center
Fri 09:40:16 PM 40.2114 -74.2469 63° Northeast 493 567 33,000  Level Boston Center
Fri 09:41:17 PM 40.2733 -74.0844 63° Northeast 498 573 33,000 -787 Level Boston Center
Fri 09:42:18 PM 40.3311 -73.9303 64° Northeast 498 573 31,400 -2,410 Descending Boston Center
Fri 09:43:19 PM 40.3919 -73.7694 64° Northeast 497 572 28,100 -2,213 Descending Boston Center
Fri 09:44:20 PM 40.4503 -73.6081 65° Northeast 470 541 26,900 -738 Descending Boston Center
Fri 09:45:21 PM 40.5061 -73.4567 64° Northeast 464 534 26,600 -689 Descending Boston Center
Fri 09:46:22 PM 40.5622 -73.3061 64° Northeast 462 532 25,500 -1,131 Descending Boston Center
Fri 09:47:23 PM 40.6281 -73.1278 64° Northeast 456 525 24,300 -1,082 Descending Boston Center
Fri 09:48:24 PM 40.6814 -72.9797 65° Northeast 453 521 23,300 -984 Descending Boston Center
Fri 09:49:25 PM 40.7347 -72.8333 64° Northeast 445 512 22,300 -942 Descending Boston Center
Fri 09:50:25 PM 40.7789 -72.7083 65° Northeast 437 503 21,400 -942 Descending Boston Center
Fri 09:51:26 PM 40.8300 -72.5678 64° Northeast 429 494 20,400 -984 Descending Boston Center
Fri 09:52:27 PM 40.8844 -72.4308 62° Northeast 428 493 19,400 -1,116 Descending Boston Center
Fri 09:52:52 PM 40.9342 -72.3714 42° Northeast 422 486 18,800 -1,180 Descending Boston Center
Fri 09:53:28 PM 40.9792 -72.3161 43° Northeast 399 459 18,200 -932 Descending Boston Center
Fri 09:54:35 PM 41.0678 -72.2128 41° Northeast 389 448 17,200 -1,328 Descending Boston Center
Fri 09:55:30 PM 41.1375 -72.1306 42° Northeast 378 435 15,500 -1,983 Descending Boston Center
Fri 09:56:36 PM 41.2294 -72.0236 41° Northeast 371 427 13,200 -2,050 Descending Boston Center
Fri 09:57:30 PM 41.2933 -71.9469 42° Northeast 365 420 11,400 -1,388 Descending Boston Center
Fri 09:58:37 PM 41.3800 -71.8642 36° Northeast 307 353 10,400 -984 Descending Boston Center
Fri 09:59:38 PM 41.4511 -71.8042 32° Northeast 283 326 9,300 -1,289 Descending Boston Center
Fri 10:00:38 PM 41.5161 -71.7506 32° Northeast 277 319 7,800 -1,461 Descending Boston Center
Fri 10:01:33 PM 41.5683 -71.6978 37° Northeast 269 310 6,500 -1,345 Descending Boston Center
Fri 10:02:34 PM 41.6300 -71.6400 35° Northeast 268 308 5,200 -744 Descending Boston Center
Fri 10:03:34 PM 41.6806 -71.5836 40° Northeast 219 252 5,000 -472 Descending Boston Center
Fri 10:04:41 PM 41.7378 -71.5267 37° Northeast 217 250 4,200 -793 Descending Boston Center
Fri 10:05:35 PM 41.7789 -71.4839 38° Northeast 215 247 3,400 -835 Descending Boston Center
Fri 10:06:36 PM 41.8211 -71.4358 40° Northeast 194 223 2,600 -738 Descending Boston Center
Fri 10:07:37 PM 41.8222 -71.3786 88° East 165 190 1,900 -614 Descending Boston Center
Fri 10:08:43 PM 41.7811 -71.3781 179° South 138 159 1,300 -661 Descending Boston Center
Fri 10:09:44 PM 41.7447 -71.4081 212° Southwest 148 170 500 -787 Descending Boston Center

Login

Don't have an account? Register now (free) for customized features, flight alerts, and more!